Portada
METAR-TAF:

METAR-TAF

Aeroports :

Aeroport Internacional Diori Hamani

Niamey, Níger

latitud: 13-29N, longitud: 002-10E, altitud: 223 m

Observació

L'informe es va fer fa 27 minuts, a les 18:00 UTC
Vent 4 kt del Nord-Oest
Temperatura 33°C
Humitat 14%
Pressió 1010 hPa
Visibilitat: 6000 m

METAR: DRRN 051800Z 31004KT 6000 NSC 33/02 Q1010 TEMPO 4000 DU

Hora: 19:27 (18:27 UTC)

Pronòstic

L'informe es va fer fa 1 hora i 27 minuts, a les 17:00 UTC
Pronòstic vàlid del 05 a les 18 UTC al 06 a les 24 UTC
Vent 8 kt del Nord
Visibilitat: 6000 m
Temporalment
l' 06 a les 06 UTC al 06 a les 10 UTC
Visibilitat: 2500 m
Pols estès
Evolucionant progressivament
l' 06 a les 10 UTC al 06 a les 12 UTC
Vent 10 kt del Est

TAF: DRRN 051700Z 0518/0624 35008KT 6000 NSC TEMPO 0606/0610 2500 DU BECMG 0610/0612 08010KT

Observacions i pronòstics meteorològics de més de 4000 aeroports (METAR i TAF).

Les estacions disponibles són els punts grocs i vermells al mapa.

Posi el ratolí al punt desitjat per veure el nom de l'estació.

Feu clic per veure les observacions i els pronòstics meteorològics.

Per canviar el mapa: feu clic els botons verds amb una creu de color negre per apropar; al botó verd amb un guió per allunyar la imatge; o en les fletxes verdes per a mapes adjacents.


METAR-TAF: